Aviation Digital Data Service (ADDS)

Output produced by METARs form (0156 UTC 22 August 2014)
found at http://aviationweather.gov/adds/metars/
 
KJFK 212322Z 2200/2306 14009KT P6SM VCSH SCT015 BKN040 
     FM220200 12005KT P6SM VCSH BKN015 
     TEMPO 2202/2205 5SM SHRA 
     FM221000 10008KT 6SM BR OVC015 
     FM221400 10011KT P6SM SCT020 OVC035 
     FM230200 09008KT P6SM BKN020 OVC035